createdAt,value
2023-05-14T00:00:07.764Z,10.50
2023-05-14T00:02:37.673Z,9.50
2023-05-14T00:05:13.078Z,8.73
2023-05-14T00:07:45.571Z,8.13
2023-05-14T00:10:15.391Z,8.33
2023-05-14T00:12:45.226Z,7.60
2023-05-14T00:15:15.240Z,8.00
2023-05-14T00:17:45.425Z,8.23
2023-05-14T00:20:15.617Z,8.63
2023-05-14T00:22:48.050Z,9.07
2023-05-14T00:25:20.166Z,9.80
2023-05-14T00:27:49.989Z,9.43
2023-05-14T00:30:19.921Z,8.13
2023-05-14T00:32:49.793Z,9.80
2023-05-14T00:35:20.744Z,9.47
2023-05-14T00:37:53.203Z,10.00
2023-05-14T00:40:23.830Z,9.80
2023-05-14T00:42:53.904Z,9.93
2023-05-14T00:45:23.868Z,10.03
2023-05-14T00:47:53.866Z,9.70
2023-05-14T00:50:24.517Z,9.67
2023-05-14T00:52:57.211Z,9.93
2023-05-14T00:55:27.177Z,9.73
2023-05-14T00:57:59.299Z,9.90
2023-05-14T01:00:29.226Z,9.40
2023-05-14T01:03:01.628Z,9.43
2023-05-14T01:05:35.059Z,9.83
2023-05-14T01:08:16.286Z,9.87
2023-05-14T01:10:54.276Z,10.33
2023-05-14T01:13:30.032Z,8.60
2023-05-14T01:16:01.612Z,8.70
2023-05-14T01:18:33.161Z,8.70
2023-05-14T01:21:05.005Z,9.43
2023-05-14T01:23:37.478Z,8.67
2023-05-14T01:26:10.908Z,9.30
2023-05-14T01:28:41.419Z,9.10
2023-05-14T01:31:19.913Z,9.87
2023-05-14T01:33:51.599Z,9.97
2023-05-14T01:36:21.717Z,8.27
2023-05-14T01:38:54.932Z,9.13
2023-05-14T01:41:26.147Z,10.13
2023-05-14T01:43:56.258Z,9.90
2023-05-14T01:46:26.130Z,9.73
2023-05-14T01:48:55.945Z,9.07
2023-05-14T01:51:25.818Z,9.10
2023-05-14T01:53:58.258Z,9.43
2023-05-14T01:56:28.262Z,8.57
2023-05-14T01:58:58.617Z,8.77
2023-05-14T02:01:28.658Z,8.73
2023-05-14T02:04:02.453Z,8.27
2023-05-14T02:06:32.494Z,9.17
2023-05-14T02:09:08.695Z,8.57
2023-05-14T02:11:38.600Z,9.23
2023-05-14T02:14:08.551Z,8.57
2023-05-14T02:16:38.398Z,8.70
2023-05-14T02:19:08.436Z,8.87
2023-05-14T02:21:38.386Z,9.47
2023-05-14T02:24:11.039Z,9.67
2023-05-14T02:26:40.897Z,9.50
2023-05-14T02:29:11.007Z,9.20
2023-05-14T02:31:40.872Z,9.83
2023-05-14T02:34:10.722Z,9.00
2023-05-14T02:36:40.524Z,10.13
2023-05-14T02:39:13.012Z,8.50
2023-05-14T02:41:42.831Z,9.60
2023-05-14T02:44:12.681Z,10.83
2023-05-14T02:46:42.521Z,9.40
2023-05-14T02:49:12.419Z,10.50
2023-05-14T02:51:42.221Z,9.70
2023-05-14T02:54:16.589Z,10.67
2023-05-14T02:56:48.001Z,9.77
2023-05-14T02:59:17.841Z,10.47
2023-05-14T03:01:48.107Z,9.80
2023-05-14T03:04:21.371Z,10.67
2023-05-14T03:06:51.398Z,9.87
2023-05-14T03:09:23.806Z,8.90
2023-05-14T03:11:53.819Z,7.70
2023-05-14T03:14:23.641Z,8.67
2023-05-14T03:16:53.455Z,8.80
2023-05-14T03:19:23.323Z,9.00
2023-05-14T03:21:53.173Z,9.50
2023-05-14T03:24:25.592Z,8.30
2023-05-14T03:26:55.448Z,9.20
2023-05-14T03:29:25.246Z,8.80
2023-05-14T03:31:58.202Z,10.47
2023-05-14T03:34:28.104Z,11.10
2023-05-14T03:36:57.991Z,9.67
2023-05-14T03:39:30.466Z,9.73
2023-05-14T03:42:00.556Z,10.03
2023-05-14T03:44:30.366Z,10.63
2023-05-14T03:47:00.205Z,10.37
2023-05-14T03:49:30.091Z,11.07
2023-05-14T03:52:00.389Z,10.50
2023-05-14T03:54:32.921Z,11.83
2023-05-14T03:57:02.844Z,11.10
2023-05-14T03:59:32.956Z,10.73
2023-05-14T04:02:02.915Z,10.70
2023-05-14T04:04:32.897Z,10.30
2023-05-14T04:07:02.806Z,9.73
2023-05-14T04:09:35.308Z,9.50
2023-05-14T04:12:05.189Z,9.10
2023-05-14T04:14:35.026Z,9.23
2023-05-14T04:17:04.872Z,9.77
2023-05-14T04:19:34.723Z,10.10
2023-05-14T04:22:04.540Z,10.60
2023-05-14T04:24:37.772Z,10.37
2023-05-14T04:27:08.216Z,10.63
2023-05-14T04:29:38.025Z,10.63
2023-05-14T04:32:08.796Z,10.60
2023-05-14T04:34:39.483Z,10.53
2023-05-14T04:37:09.345Z,10.10
2023-05-14T04:39:41.919Z,9.20
2023-05-14T04:42:11.757Z,9.97
2023-05-14T04:44:43.176Z,8.90
2023-05-14T04:47:13.017Z,8.63
2023-05-14T04:49:43.582Z,8.40
2023-05-14T04:52:13.576Z,8.00
2023-05-14T04:54:46.110Z,8.30
2023-05-14T04:57:16.000Z,8.37
2023-05-14T04:59:45.876Z,7.90
2023-05-14T05:02:15.727Z,7.73
2023-05-14T05:04:45.692Z,7.73
2023-05-14T05:07:16.270Z,7.40
2023-05-14T05:09:48.718Z,7.70
2023-05-14T05:12:19.684Z,8.27
2023-05-14T05:14:49.543Z,7.43
2023-05-14T05:17:20.927Z,8.13
2023-05-14T05:19:50.759Z,7.50
2023-05-14T05:22:20.662Z,7.87
2023-05-14T05:24:53.208Z,8.00
2023-05-14T05:27:23.486Z,7.97
2023-05-14T05:29:53.420Z,7.93
2023-05-14T05:32:23.460Z,6.87
2023-05-14T05:34:55.027Z,7.53
2023-05-14T05:37:24.877Z,7.13
2023-05-14T05:39:57.322Z,6.10
2023-05-14T05:42:27.668Z,6.57
2023-05-14T05:44:57.767Z,6.63
2023-05-14T05:47:27.616Z,6.13
2023-05-14T05:49:57.544Z,6.23
2023-05-14T05:52:27.401Z,6.40
2023-05-14T05:55:00.604Z,6.20
2023-05-14T05:57:30.693Z,6.37
2023-05-14T06:00:01.218Z,6.20
2023-05-14T06:02:31.141Z,6.33
2023-05-14T06:05:03.665Z,5.97
2023-05-14T06:07:33.489Z,5.97
2023-05-14T06:10:06.609Z,6.13
2023-05-14T06:12:36.467Z,6.40
2023-05-14T06:15:06.748Z,5.50
2023-05-14T06:17:36.628Z,6.13
2023-05-14T06:20:08.180Z,5.90
2023-05-14T06:22:38.004Z,6.53
2023-05-14T06:25:11.706Z,6.53
2023-05-14T06:27:42.479Z,6.53
2023-05-14T06:30:13.741Z,6.03
2023-05-14T06:32:43.722Z,5.90
2023-05-14T06:35:13.734Z,6.47
2023-05-14T06:37:45.120Z,6.40
2023-05-14T06:40:18.535Z,7.40
2023-05-14T06:42:48.319Z,6.27
2023-05-14T06:45:18.326Z,7.00
2023-05-14T06:47:48.216Z,6.50
2023-05-14T06:50:18.180Z,7.23
2023-05-14T06:52:48.382Z,7.27
2023-05-14T06:55:21.025Z,7.37
2023-05-14T06:57:51.156Z,7.93
2023-05-14T07:00:23.226Z,7.77
2023-05-14T07:02:53.326Z,7.30
2023-05-14T07:05:27.737Z,7.60
2023-05-14T07:07:57.572Z,6.77
2023-05-14T07:10:31.138Z,7.47
2023-05-14T07:13:01.001Z,7.60
2023-05-14T07:15:31.077Z,7.40
2023-05-14T07:18:00.942Z,6.53
2023-05-14T07:20:30.842Z,6.00
2023-05-14T07:23:00.690Z,6.63
2023-05-14T07:25:33.135Z,6.20
2023-05-14T07:28:02.963Z,6.47
2023-05-14T07:30:32.795Z,6.57
2023-05-14T07:33:02.688Z,6.30
2023-05-14T07:35:32.572Z,6.13
2023-05-14T07:38:02.526Z,5.57
2023-05-14T07:40:35.003Z,5.87
2023-05-14T07:43:04.880Z,6.23
2023-05-14T07:45:37.907Z,5.70
2023-05-14T07:48:08.175Z,5.70
2023-05-14T07:50:38.261Z,5.87
2023-05-14T07:53:08.230Z,5.93
2023-05-14T07:55:40.690Z,5.97
2023-05-14T07:58:10.686Z,5.73
2023-05-14T08:00:40.465Z,5.73
2023-05-14T08:03:10.339Z,6.07
2023-05-14T08:05:40.449Z,6.17
2023-05-14T08:08:11.082Z,5.60
2023-05-14T08:10:43.592Z,6.00
2023-05-14T08:13:13.473Z,5.93
2023-05-14T08:15:43.273Z,6.30
2023-05-14T08:18:13.188Z,6.23
2023-05-14T08:20:43.047Z,6.00
2023-05-14T08:23:14.702Z,6.73
2023-05-14T08:25:52.493Z,6.13
2023-05-14T08:28:23.383Z,6.77
2023-05-14T08:30:57.670Z,6.70
2023-05-14T08:33:30.262Z,6.37
2023-05-14T08:36:00.755Z,6.53
2023-05-14T08:38:30.603Z,6.27
2023-05-14T08:41:03.651Z,6.03
2023-05-14T08:43:39.464Z,5.83
2023-05-14T08:46:10.268Z,6.47
2023-05-14T08:48:43.752Z,7.13
2023-05-14T08:51:13.818Z,6.93
2023-05-14T08:53:43.819Z,7.60
2023-05-14T08:56:17.848Z,6.63
2023-05-14T08:58:47.825Z,6.93
2023-05-14T09:01:17.755Z,7.50
2023-05-14T09:03:52.142Z,7.10
2023-05-14T09:06:22.497Z,7.20
2023-05-14T09:08:54.160Z,7.20
2023-05-14T09:11:26.835Z,7.32
2023-05-14T09:13:57.086Z,7.47
2023-05-14T09:16:29.173Z,6.80
2023-05-14T09:19:04.789Z,7.07
2023-05-14T09:21:34.949Z,6.97
2023-05-14T09:24:04.761Z,6.85
2023-05-14T09:26:38.321Z,7.50
2023-05-14T09:29:08.186Z,7.07
2023-05-14T09:31:38.032Z,7.40
2023-05-14T09:34:07.927Z,7.20
2023-05-14T09:36:38.415Z,6.22
2023-05-14T09:39:09.527Z,6.60
2023-05-14T09:41:41.970Z,7.45
2023-05-14T09:44:11.816Z,7.18
2023-05-14T09:46:41.685Z,6.78
2023-05-14T09:49:13.124Z,7.65
2023-05-14T09:51:43.009Z,8.27
2023-05-14T09:54:13.133Z,7.43
2023-05-14T09:56:46.488Z,7.75
2023-05-14T09:59:16.360Z,7.97
2023-05-14T10:01:46.886Z,7.33
2023-05-14T10:04:17.820Z,7.55
2023-05-14T10:06:54.211Z,7.82
2023-05-14T10:09:28.102Z,8.13
2023-05-14T10:12:03.931Z,7.97
2023-05-14T10:14:39.117Z,7.78
2023-05-14T10:17:18.380Z,8.20
2023-05-14T10:19:56.907Z,8.68
2023-05-14T10:22:30.506Z,8.82
2023-05-14T10:25:00.463Z,8.00
2023-05-14T10:27:33.065Z,7.45
2023-05-14T10:30:03.021Z,8.70
2023-05-14T10:32:38.110Z,8.55
2023-05-14T10:35:20.777Z,8.45
2023-05-14T10:37:53.746Z,8.38
2023-05-14T10:40:31.240Z,8.63
2023-05-14T10:43:05.685Z,8.55
2023-05-14T10:45:35.648Z,7.60
2023-05-14T10:48:05.656Z,7.80
2023-05-14T10:50:35.766Z,7.90
2023-05-14T10:53:06.208Z,9.02
2023-05-14T10:55:36.381Z,8.93
2023-05-14T10:58:09.376Z,8.05
2023-05-14T11:00:40.051Z,7.53
2023-05-14T11:03:10.782Z,8.23
2023-05-14T11:05:44.161Z,8.35
2023-05-14T11:08:15.866Z,9.13
2023-05-14T11:10:50.368Z,8.55
2023-05-14T11:13:23.280Z,8.60
2023-05-14T11:15:54.165Z,7.97
2023-05-14T11:18:33.262Z,8.65
2023-05-14T11:21:05.644Z,7.30
2023-05-14T11:23:35.617Z,8.40
2023-05-14T11:26:05.585Z,8.68
2023-05-14T11:28:38.863Z,6.80
2023-05-14T11:31:08.950Z,8.32
2023-05-14T11:33:39.015Z,9.18
2023-05-14T11:36:11.077Z,8.50
2023-05-14T11:38:51.706Z,9.35
2023-05-14T11:41:23.535Z,9.05
2023-05-14T11:43:58.411Z,8.10
2023-05-14T11:46:30.273Z,10.30
2023-05-14T11:49:00.155Z,8.73
2023-05-14T11:51:30.013Z,8.43
2023-05-14T11:54:00.051Z,10.20
2023-05-14T11:56:30.231Z,10.18
2023-05-14T11:59:02.836Z,9.27
2023-05-14T12:01:35.199Z,9.73
2023-05-14T12:04:06.970Z,10.10
2023-05-14T12:06:37.042Z,8.88
2023-05-14T12:09:09.124Z,9.57
2023-05-14T12:11:40.051Z,10.13
2023-05-14T12:14:19.282Z,10.35
2023-05-14T12:16:49.782Z,10.02
2023-05-14T12:19:23.782Z,11.02
2023-05-14T12:21:57.009Z,9.30
2023-05-14T12:24:28.780Z,10.25
2023-05-14T12:26:58.636Z,9.60
2023-05-14T12:29:31.297Z,12.05
2023-05-14T12:32:04.863Z,11.38
2023-05-14T12:34:35.958Z,10.50
2023-05-14T12:37:07.474Z,11.50
2023-05-14T12:39:38.174Z,11.95
2023-05-14T12:42:08.412Z,10.50
2023-05-14T12:44:43.467Z,11.68
2023-05-14T12:47:13.622Z,11.23
2023-05-14T12:49:45.054Z,11.95
2023-05-14T12:52:22.754Z,10.98
2023-05-14T12:54:55.856Z,11.98
2023-05-14T12:57:25.673Z,12.10
2023-05-14T12:59:58.487Z,11.50
2023-05-14T13:02:28.309Z,10.98
2023-05-14T13:04:58.156Z,12.18
2023-05-14T13:07:27.994Z,13.13
2023-05-14T13:09:57.801Z,11.82
2023-05-14T13:12:27.589Z,12.15
2023-05-14T13:15:00.056Z,11.73
2023-05-14T13:17:30.027Z,12.23
2023-05-14T13:20:11.276Z,12.15
2023-05-14T13:22:41.316Z,11.90
2023-05-14T13:25:12.327Z,12.65
2023-05-14T13:27:42.137Z,11.60
2023-05-14T13:30:15.247Z,12.40
2023-05-14T13:32:45.045Z,12.32
2023-05-14T13:35:15.598Z,13.52
2023-05-14T13:37:46.229Z,12.48
2023-05-14T13:40:19.200Z,12.70
2023-05-14T13:42:48.968Z,13.27
2023-05-14T13:45:21.626Z,12.68
2023-05-14T13:47:51.844Z,12.98
2023-05-14T13:50:23.206Z,13.98
2023-05-14T13:52:52.996Z,13.35
2023-05-14T13:55:23.161Z,13.27
2023-05-14T13:57:53.709Z,10.80
2023-05-14T14:00:28.946Z,12.73
2023-05-14T14:02:58.831Z,10.85
2023-05-14T14:05:31.973Z,11.32
2023-05-14T14:08:13.153Z,10.10
2023-05-14T14:10:52.455Z,11.25
2023-05-14T14:13:22.996Z,9.07
2023-05-14T14:15:55.634Z,10.57
2023-05-14T14:18:25.580Z,10.73
2023-05-14T14:20:55.503Z,12.60
2023-05-14T14:23:25.308Z,13.20
2023-05-14T14:25:55.131Z,13.50
2023-05-14T14:28:24.948Z,14.32
2023-05-14T14:30:59.732Z,14.15
2023-05-14T14:33:29.674Z,13.60
2023-05-14T14:35:59.496Z,13.63
2023-05-14T14:38:29.467Z,14.10
2023-05-14T14:41:00.665Z,13.50
2023-05-14T14:43:30.567Z,12.82
2023-05-14T14:46:05.591Z,13.15
2023-05-14T14:48:37.929Z,11.15
2023-05-14T14:51:08.769Z,13.13
2023-05-14T14:53:40.578Z,13.95
2023-05-14T14:56:13.662Z,12.88
2023-05-14T14:58:43.457Z,14.73
2023-05-14T15:01:16.131Z,15.07
2023-05-14T15:03:48.699Z,13.52
2023-05-14T15:06:18.511Z,13.30
2023-05-14T15:08:50.656Z,13.65
2023-05-14T15:11:20.686Z,13.48
2023-05-14T15:13:50.498Z,13.27
2023-05-14T15:16:22.889Z,13.80
2023-05-14T15:18:55.107Z,13.13
2023-05-14T15:21:25.008Z,14.45
2023-05-14T15:23:54.812Z,12.10
2023-05-14T15:26:26.497Z,13.90
2023-05-14T15:28:56.449Z,13.25
2023-05-14T15:31:28.958Z,14.20
2023-05-14T15:33:58.808Z,14.93
2023-05-14T15:36:28.788Z,13.07
2023-05-14T15:39:01.136Z,15.38
2023-05-14T15:41:31.497Z,14.77
2023-05-14T15:44:01.476Z,14.90
2023-05-14T15:46:34.176Z,15.50
2023-05-14T15:49:04.081Z,14.93
2023-05-14T15:51:33.942Z,14.70
2023-05-14T15:54:05.372Z,13.48
2023-05-14T15:56:35.237Z,16.35
2023-05-14T15:59:05.132Z,16.35
2023-05-14T16:01:37.566Z,13.93
2023-05-14T16:04:09.168Z,15.30
2023-05-14T16:06:44.394Z,15.65
2023-05-14T16:09:15.051Z,14.63
2023-05-14T16:11:45.264Z,16.13
2023-05-14T16:14:15.152Z,16.80
2023-05-14T16:16:48.469Z,16.92
2023-05-14T16:19:18.479Z,16.90
2023-05-14T16:21:48.421Z,16.42
2023-05-14T16:24:21.176Z,16.98
2023-05-14T16:26:51.749Z,16.95
2023-05-14T16:29:21.581Z,17.40
2023-05-14T16:31:54.150Z,18.07
2023-05-14T16:34:24.064Z,18.03
2023-05-14T16:36:54.695Z,15.43
2023-05-14T16:39:24.555Z,14.82
2023-05-14T16:41:54.369Z,16.50
2023-05-14T16:44:24.262Z,15.70
2023-05-14T16:46:56.918Z,16.48
2023-05-14T16:49:26.889Z,16.52
2023-05-14T16:51:56.834Z,15.85
2023-05-14T16:54:26.935Z,17.35
2023-05-14T16:56:56.862Z,18.20
2023-05-14T16:59:26.763Z,16.57
2023-05-14T17:01:59.802Z,17.20
2023-05-14T17:04:33.719Z,15.17
2023-05-14T17:07:10.187Z,14.73
2023-05-14T17:09:40.340Z,16.53
2023-05-14T17:12:13.073Z,18.58
2023-05-14T17:14:45.629Z,19.83
2023-05-14T17:17:18.093Z,19.23
2023-05-14T17:19:48.553Z,18.97
2023-05-14T17:22:18.445Z,20.50
2023-05-14T17:24:48.313Z,20.93
2023-05-14T17:27:21.272Z,19.67
2023-05-14T17:29:56.500Z,19.03
2023-05-14T17:32:43.278Z,19.73
2023-05-14T17:35:17.373Z,20.60
2023-05-14T17:37:48.992Z,18.80
2023-05-14T17:40:18.928Z,20.37
2023-05-14T17:42:48.904Z,20.57
2023-05-14T17:45:20.954Z,20.40
2023-05-14T17:47:53.655Z,19.77
2023-05-14T17:50:25.139Z,19.40
2023-05-14T17:52:56.722Z,19.73
2023-05-14T17:55:26.843Z,20.38
2023-05-14T18:00:44.086Z,20.87
2023-05-14T18:03:17.788Z,20.50
2023-05-14T18:05:48.630Z,20.17
2023-05-14T18:08:18.576Z,19.80
2023-05-14T18:11:56.818Z,18.87
2023-05-14T18:14:11.093Z,19.40
2023-05-14T18:16:41.584Z,19.10
2023-05-14T18:19:14.449Z,19.00
2023-05-14T18:21:48.765Z,18.23
2023-05-14T18:27:34.010Z,21.87
2023-05-14T18:30:55.250Z,20.60
2023-05-14T18:36:04.596Z,21.60
2023-05-14T18:38:36.061Z,20.07
2023-05-14T18:41:05.950Z,20.77
2023-05-14T18:43:45.948Z,20.40
2023-05-14T18:46:16.003Z,20.63
2023-05-14T18:48:51.196Z,20.50
2023-05-14T18:51:23.703Z,19.63
2023-05-14T18:53:53.552Z,20.30
2023-05-14T18:56:23.383Z,20.03
2023-05-14T18:58:54.419Z,20.43
2023-05-14T19:01:26.039Z,22.10
2023-05-14T19:03:56.657Z,21.77
2023-05-14T19:06:29.384Z,22.27
2023-05-14T19:09:00.825Z,20.17
2023-05-14T19:11:33.709Z,20.03
2023-05-14T19:14:03.558Z,20.43
2023-05-14T19:16:33.517Z,22.07
2023-05-14T19:19:06.628Z,19.63
2023-05-14T19:21:39.510Z,20.53
2023-05-14T19:24:11.622Z,19.27
2023-05-14T19:26:42.233Z,19.43
2023-05-14T19:29:12.121Z,19.60
2023-05-14T19:31:41.975Z,19.90
2023-05-14T19:34:11.872Z,21.77
2023-05-14T19:36:47.915Z,20.90
2023-05-14T19:39:19.353Z,21.40
2023-05-14T19:41:49.152Z,21.87
2023-05-14T19:44:18.965Z,22.00
2023-05-14T19:46:48.916Z,22.47
2023-05-14T19:49:18.773Z,22.80
2023-05-14T19:51:51.217Z,21.70
2023-05-14T19:54:21.041Z,22.37
2023-05-14T19:56:51.183Z,23.17
2023-05-14T19:59:21.102Z,20.60
2023-05-14T20:01:51.151Z,21.87
2023-05-14T20:04:20.945Z,20.73
2023-05-14T20:06:53.682Z,21.03
2023-05-14T20:09:23.555Z,22.07
2023-05-14T20:11:53.392Z,22.30
2023-05-14T20:14:23.174Z,23.30
2023-05-14T20:16:53.349Z,21.83
2023-05-14T20:19:23.809Z,22.57
2023-05-14T20:21:56.494Z,23.43
2023-05-14T20:24:26.337Z,22.83
2023-05-14T20:26:56.925Z,22.97
2023-05-14T20:29:26.856Z,22.10
2023-05-14T20:31:57.149Z,21.63
2023-05-14T20:34:26.975Z,20.40
2023-05-14T20:37:02.070Z,20.03
2023-05-14T20:39:32.544Z,23.53
2023-05-14T20:42:02.360Z,23.10
2023-05-14T20:44:32.224Z,23.53
2023-05-14T20:47:02.106Z,21.60
2023-05-14T20:49:31.986Z,23.37
2023-05-14T20:52:04.597Z,25.30
2023-05-14T20:54:36.329Z,25.13
2023-05-14T20:57:06.299Z,22.23
2023-05-14T20:59:36.209Z,23.93
2023-05-14T21:02:06.430Z,21.90
2023-05-14T21:04:37.061Z,21.97
2023-05-14T21:07:10.577Z,21.27
2023-05-14T21:09:40.592Z,21.50
2023-05-14T21:12:11.551Z,23.73
2023-05-14T21:14:42.295Z,25.67
2023-05-14T21:17:12.212Z,24.43
2023-05-14T21:19:42.170Z,25.00
2023-05-14T21:22:15.232Z,26.27
2023-05-14T21:24:45.229Z,24.93
2023-05-14T21:27:15.206Z,24.83
2023-05-14T21:29:45.176Z,25.43
2023-05-14T21:51:36.193Z,26.97
2023-05-14T21:54:06.130Z,29.27
2023-05-14T21:56:38.358Z,27.77
2023-05-14T21:59:08.352Z,28.00
2023-05-14T22:01:56.039Z,26.60
2023-05-14T22:04:32.262Z,24.23
2023-05-14T22:07:15.041Z,25.03
2023-05-14T22:09:44.981Z,23.13
2023-05-14T22:12:17.040Z,22.33
2023-05-14T22:14:49.906Z,23.83
2023-05-14T22:17:25.706Z,23.93
2023-05-14T22:19:55.619Z,25.60
2023-05-14T22:22:28.624Z,23.57
2023-05-14T22:25:10.775Z,23.10
2023-05-14T22:27:40.644Z,24.33
2023-05-14T22:30:13.187Z,23.73
2023-05-14T22:32:46.307Z,23.60
2023-05-14T22:35:16.254Z,25.37
2023-05-14T22:40:25.656Z,25.43
2023-05-14T22:43:00.927Z,23.90
2023-05-14T22:45:30.856Z,24.23
2023-05-14T22:48:00.806Z,23.60
2023-05-14T22:50:30.763Z,27.03
2023-05-14T22:53:00.588Z,23.47
2023-05-14T22:55:33.302Z,23.07
2023-05-14T22:58:06.548Z,21.97
2023-05-14T23:00:36.773Z,23.90
2023-05-14T23:03:06.977Z,22.77
2023-05-14T23:05:37.035Z,24.00
2023-05-14T23:08:07.368Z,21.83
2023-05-14T23:10:41.428Z,23.03
2023-05-14T23:13:13.510Z,21.23
2023-05-14T23:15:46.137Z,23.63
2023-05-14T23:18:16.161Z,23.67
2023-05-14T23:20:49.845Z,23.60
2023-05-14T23:23:19.787Z,23.27
2023-05-14T23:25:52.573Z,22.97
2023-05-14T23:28:22.420Z,21.17
2023-05-14T23:30:52.363Z,21.80
2023-05-14T23:33:22.247Z,22.40
2023-05-14T23:35:52.355Z,24.77
2023-05-14T23:38:22.274Z,22.23
2023-05-14T23:40:54.782Z,22.57
2023-05-14T23:43:24.647Z,20.20
2023-05-14T23:45:54.509Z,25.00
2023-05-14T23:48:24.413Z,25.30
2023-05-14T23:50:54.279Z,24.83
2023-05-14T23:53:24.898Z,25.60
2023-05-14T23:55:57.372Z,24.97
2023-05-14T23:58:27.326Z,24.63
